sensor_id;sensor_type;location;lat;lon;timestamp;pressure;altitude;pressure_sealevel;temperature;humidity
20077;BME280;12348;42.710;23.378;2023-04-26T00:01:23;94215.34;;;8.22;100.00
20077;BME280;12348;42.710;23.378;2023-04-26T00:03:51;94207.69;;;8.16;100.00
20077;BME280;12348;42.710;23.378;2023-04-26T00:06:20;94215.13;;;8.05;100.00
20077;BME280;12348;42.710;23.378;2023-04-26T00:08:47;94211.84;;;7.94;100.00
20077;BME280;12348;42.710;23.378;2023-04-26T00:11:14;94201.59;;;7.83;100.00
20077;BME280;12348;42.710;23.378;2023-04-26T00:13:41;94197.69;;;7.75;100.00
20077;BME280;12348;42.710;23.378;2023-04-26T00:16:12;94196.81;;;7.66;100.00
20077;BME280;12348;42.710;23.378;2023-04-26T00:18:40;94188.81;;;7.61;100.00
20077;BME280;12348;42.710;23.378;2023-04-26T00:21:08;94181.47;;;7.52;100.00
20077;BME280;12348;42.710;23.378;2023-04-26T00:23:34;94181.84;;;7.46;100.00
20077;BME280;12348;42.710;23.378;2023-04-26T00:26:02;94185.09;;;7.43;100.00
20077;BME280;12348;42.710;23.378;2023-04-26T00:28:29;94178.94;;;7.42;100.00
20077;BME280;12348;42.710;23.378;2023-04-26T00:30:56;94185.41;;;7.41;100.00
20077;BME280;12348;42.710;23.378;2023-04-26T00:33:23;94178.25;;;7.37;100.00
20077;BME280;12348;42.710;23.378;2023-04-26T00:35:52;94180.72;;;7.33;100.00
20077;BME280;12348;42.710;23.378;2023-04-26T00:38:19;94176.69;;;7.49;100.00
20077;BME280;12348;42.710;23.378;2023-04-26T00:40:46;94169.03;;;7.89;100.00
20077;BME280;12348;42.710;23.378;2023-04-26T00:43:12;94174.88;;;7.91;100.00
20077;BME280;12348;42.710;23.378;2023-04-26T00:45:39;94166.66;;;8.01;100.00
20077;BME280;12348;42.710;23.378;2023-04-26T00:48:06;94163.50;;;7.99;100.00
20077;BME280;12348;42.710;23.378;2023-04-26T00:50:33;94165.97;;;7.82;100.00
20077;BME280;12348;42.710;23.378;2023-04-26T00:53:01;94176.97;;;7.81;100.00
20077;BME280;12348;42.710;23.378;2023-04-26T00:55:28;94171.31;;;7.82;100.00
20077;BME280;12348;42.710;23.378;2023-04-26T00:57:55;94176.94;;;7.67;100.00
20077;BME280;12348;42.710;23.378;2023-04-26T01:00:22;94175.75;;;7.59;100.00
20077;BME280;12348;42.710;23.378;2023-04-26T01:02:51;94179.88;;;7.51;100.00
20077;BME280;12348;42.710;23.378;2023-04-26T01:05:18;94180.06;;;7.41;100.00
20077;BME280;12348;42.710;23.378;2023-04-26T01:07:45;94178.84;;;7.34;100.00
20077;BME280;12348;42.710;23.378;2023-04-26T01:10:14;94188.19;;;7.36;100.00
20077;BME280;12348;42.710;23.378;2023-04-26T01:12:41;94183.97;;;7.30;100.00
20077;BME280;12348;42.710;23.378;2023-04-26T01:15:09;94181.22;;;7.35;100.00
20077;BME280;12348;42.710;23.378;2023-04-26T01:17:36;94182.66;;;7.27;100.00
20077;BME280;12348;42.710;23.378;2023-04-26T01:20:04;94181.88;;;7.27;100.00
20077;BME280;12348;42.710;23.378;2023-04-26T01:22:34;94185.13;;;7.24;100.00
20077;BME280;12348;42.710;23.378;2023-04-26T01:25:03;94173.72;;;7.18;100.00
20077;BME280;12348;42.710;23.378;2023-04-26T01:27:33;94166.19;;;7.20;100.00
20077;BME280;12348;42.710;23.378;2023-04-26T01:30:00;94157.56;;;7.23;100.00
20077;BME280;12348;42.710;23.378;2023-04-26T01:32:27;94153.56;;;7.07;100.00
20077;BME280;12348;42.710;23.378;2023-04-26T01:34:56;94161.13;;;7.19;100.00
20077;BME280;12348;42.710;23.378;2023-04-26T01:37:23;94166.47;;;7.19;100.00
20077;BME280;12348;42.710;23.378;2023-04-26T01:39:52;94173.28;;;7.11;100.00
20077;BME280;12348;42.710;23.378;2023-04-26T01:42:19;94173.59;;;7.10;100.00
20077;BME280;12348;42.710;23.378;2023-04-26T01:44:46;94172.44;;;6.97;100.00
20077;BME280;12348;42.710;23.378;2023-04-26T01:47:13;94173.97;;;7.03;100.00
20077;BME280;12348;42.710;23.378;2023-04-26T01:49:40;94185.31;;;7.14;100.00
20077;BME280;12348;42.710;23.378;2023-04-26T01:52:07;94191.88;;;7.21;100.00
20077;BME280;12348;42.710;23.378;2023-04-26T01:54:33;94189.34;;;7.30;100.00
20077;BME280;12348;42.710;23.378;2023-04-26T01:57:01;94191.50;;;7.47;100.00
20077;BME280;12348;42.710;23.378;2023-04-26T01:59:28;94184.81;;;7.44;100.00
20077;BME280;12348;42.710;23.378;2023-04-26T02:01:55;94182.22;;;7.39;100.00
20077;BME280;12348;42.710;23.378;2023-04-26T02:04:22;94183.03;;;7.40;100.00
20077;BME280;12348;42.710;23.378;2023-04-26T02:06:49;94175.13;;;7.48;100.00
20077;BME280;12348;42.710;23.378;2023-04-26T02:09:16;94168.66;;;7.49;100.00
20077;BME280;12348;42.710;23.378;2023-04-26T02:11:43;94162.31;;;7.45;100.00
20077;BME280;12348;42.710;23.378;2023-04-26T02:14:11;94167.75;;;7.40;100.00
20077;BME280;12348;42.710;23.378;2023-04-26T02:16:38;94159.97;;;7.25;100.00
20077;BME280;12348;42.710;23.378;2023-04-26T02:19:05;94157.28;;;7.25;100.00
20077;BME280;12348;42.710;23.378;2023-04-26T02:21:51;94158.75;;;7.17;100.00
20077;BME280;12348;42.710;23.378;2023-04-26T02:24:18;94157.03;;;7.08;100.00
20077;BME280;12348;42.710;23.378;2023-04-26T02:26:46;94149.66;;;6.99;100.00
20077;BME280;12348;42.710;23.378;2023-04-26T02:29:15;94152.69;;;6.93;100.00
20077;BME280;12348;42.710;23.378;2023-04-26T02:31:41;94150.47;;;6.81;100.00
20077;BME280;12348;42.710;23.378;2023-04-26T02:34:08;94156.16;;;6.74;100.00
20077;BME280;12348;42.710;23.378;2023-04-26T02:36:35;94164.28;;;6.69;100.00
20077;BME280;12348;42.710;23.378;2023-04-26T02:39:02;94163.69;;;6.72;100.00
20077;BME280;12348;42.710;23.378;2023-04-26T02:41:30;94172.13;;;6.79;100.00
20077;BME280;12348;42.710;23.378;2023-04-26T02:43:58;94172.13;;;6.79;100.00
20077;BME280;12348;42.710;23.378;2023-04-26T02:46:26;94172.56;;;6.87;100.00
20077;BME280;12348;42.710;23.378;2023-04-26T02:48:53;94177.88;;;6.92;100.00
20077;BME280;12348;42.710;23.378;2023-04-26T02:51:19;94171.63;;;6.96;100.00
20077;BME280;12348;42.710;23.378;2023-04-26T02:53:46;94156.00;;;7.03;100.00
20077;BME280;12348;42.710;23.378;2023-04-26T02:56:13;94148.19;;;7.07;100.00
20077;BME280;12348;42.710;23.378;2023-04-26T02:58:40;94145.38;;;7.17;100.00
20077;BME280;12348;42.710;23.378;2023-04-26T03:01:07;94140.00;;;7.17;100.00
20077;BME280;12348;42.710;23.378;2023-04-26T03:03:36;94136.94;;;7.57;100.00
20077;BME280;12348;42.710;23.378;2023-04-26T03:06:03;94142.66;;;7.36;100.00
20077;BME280;12348;42.710;23.378;2023-04-26T03:08:29;94151.28;;;7.33;100.00
20077;BME280;12348;42.710;23.378;2023-04-26T03:10:56;94155.84;;;7.33;100.00
20077;BME280;12348;42.710;23.378;2023-04-26T03:13:23;94149.59;;;7.37;100.00
20077;BME280;12348;42.710;23.378;2023-04-26T03:15:50;94152.53;;;7.22;100.00
20077;BME280;12348;42.710;23.378;2023-04-26T03:18:18;94155.59;;;6.96;100.00
20077;BME280;12348;42.710;23.378;2023-04-26T03:20:46;94149.34;;;7.01;100.00
20077;BME280;12348;42.710;23.378;2023-04-26T03:23:14;94147.69;;;7.05;100.00
20077;BME280;12348;42.710;23.378;2023-04-26T03:25:40;94139.44;;;7.01;100.00
20077;BME280;12348;42.710;23.378;2023-04-26T03:28:07;94135.69;;;7.02;100.00
20077;BME280;12348;42.710;23.378;2023-04-26T03:30:34;94137.06;;;7.00;100.00
20077;BME280;12348;42.710;23.378;2023-04-26T03:33:01;94131.72;;;7.00;100.00
20077;BME280;12348;42.710;23.378;2023-04-26T03:35:28;94137.06;;;7.00;100.00
20077;BME280;12348;42.710;23.378;2023-04-26T03:37:56;94141.63;;;6.99;100.00
20077;BME280;12348;42.710;23.378;2023-04-26T03:40:23;94140.44;;;7.05;100.00
20077;BME280;12348;42.710;23.378;2023-04-26T03:42:49;94142.47;;;7.14;100.00
20077;BME280;12348;42.710;23.378;2023-04-26T03:45:17;94139.94;;;7.83;100.00
20077;BME280;12348;42.710;23.378;2023-04-26T03:47:46;94135.84;;;8.82;100.00
20077;BME280;12348;42.710;23.378;2023-04-26T03:50:12;94146.00;;;9.83;100.00
20077;BME280;12348;42.710;23.378;2023-04-26T03:52:39;94144.69;;;10.12;100.00
20077;BME280;12348;42.710;23.378;2023-04-26T03:55:08;94154.41;;;11.57;100.00
20077;BME280;12348;42.710;23.378;2023-04-26T03:57:36;94151.16;;;12.75;100.00
20077;BME280;12348;42.710;23.378;2023-04-26T04:00:04;94151.97;;;13.92;100.00
20077;BME280;12348;42.710;23.378;2023-04-26T04:02:34;94138.72;;;14.97;100.00
20077;BME280;12348;42.710;23.378;2023-04-26T04:05:00;94145.25;;;15.49;100.00
20077;BME280;12348;42.710;23.378;2023-04-26T04:07:28;94144.63;;;15.80;100.00
20077;BME280;12348;42.710;23.378;2023-04-26T04:09:56;94152.59;;;15.89;100.00
20077;BME280;12348;42.710;23.378;2023-04-26T04:12:25;94157.72;;;16.06;98.92
20077;BME280;12348;42.710;23.378;2023-04-26T04:14:52;94153.97;;;15.83;92.87
20077;BME280;12348;42.710;23.378;2023-04-26T04:17:18;94159.19;;;14.46;96.74
20077;BME280;12348;42.710;23.378;2023-04-26T04:19:46;94162.47;;;15.41;94.43
20077;BME280;12348;42.710;23.378;2023-04-26T04:22:12;94173.31;;;16.09;86.82
20077;BME280;12348;42.710;23.378;2023-04-26T04:24:39;94169.84;;;15.40;87.69
20077;BME280;12348;42.710;23.378;2023-04-26T04:27:07;94170.69;;;15.16;90.27
20077;BME280;12348;42.710;23.378;2023-04-26T04:29:35;94175.94;;;15.37;89.41
20077;BME280;12348;42.710;23.378;2023-04-26T04:32:02;94176.50;;;15.31;89.08
20077;BME280;12348;42.710;23.378;2023-04-26T04:34:33;94174.38;;;15.64;89.49
20077;BME280;12348;42.710;23.378;2023-04-26T04:37:00;94169.69;;;15.89;87.40
20077;BME280;12348;42.710;23.378;2023-04-26T04:39:29;94178.91;;;15.60;89.25
20077;BME280;12348;42.710;23.378;2023-04-26T04:41:56;94181.38;;;17.16;84.32
20077;BME280;12348;42.710;23.378;2023-04-26T04:44:23;94174.66;;;18.46;76.86
20077;BME280;12348;42.710;23.378;2023-04-26T04:46:53;94173.84;;;19.14;71.23
20077;BME280;12348;42.710;23.378;2023-04-26T04:49:21;94173.94;;;18.95;71.10
20077;BME280;12348;42.710;23.378;2023-04-26T04:51:49;94183.06;;;17.95;74.49
20077;BME280;12348;42.710;23.378;2023-04-26T04:54:17;94175.97;;;18.33;74.68
20077;BME280;12348;42.710;23.378;2023-04-26T04:56:46;94182.88;;;17.49;75.49
20077;BME280;12348;42.710;23.378;2023-04-26T04:59:13;94178.13;;;16.16;82.74
20077;BME280;12348;42.710;23.378;2023-04-26T05:01:40;94181.88;;;15.67;86.48
20077;BME280;12348;42.710;23.378;2023-04-26T05:04:08;94177.13;;;15.52;88.58
20077;BME280;12348;42.710;23.378;2023-04-26T05:06:35;94175.88;;;15.21;89.86
20077;BME280;12348;42.710;23.378;2023-04-26T05:09:02;94188.09;;;14.54;94.90
20077;BME280;12348;42.710;23.378;2023-04-26T05:11:30;94184.91;;;13.94;98.71
20077;BME280;12348;42.710;23.378;2023-04-26T05:13:57;94187.59;;;13.82;100.00
20077;BME280;12348;42.710;23.378;2023-04-26T05:16:24;94185.81;;;13.65;100.00
20077;BME280;12348;42.710;23.378;2023-04-26T05:18:52;94182.34;;;13.98;100.00
20077;BME280;12348;42.710;23.378;2023-04-26T05:21:21;94183.47;;;13.43;100.00
20077;BME280;12348;42.710;23.378;2023-04-26T05:23:50;94189.88;;;13.08;100.00
20077;BME280;12348;42.710;23.378;2023-04-26T05:26:17;94188.34;;;13.28;100.00
20077;BME280;12348;42.710;23.378;2023-04-26T05:28:44;94189.91;;;13.71;100.00
20077;BME280;12348;42.710;23.378;2023-04-26T05:31:11;94197.47;;;13.45;100.00
20077;BME280;12348;42.710;23.378;2023-04-26T05:33:38;94196.06;;;13.93;100.00
20077;BME280;12348;42.710;23.378;2023-04-26T05:36:06;94193.69;;;13.37;100.00
20077;BME280;12348;42.710;23.378;2023-04-26T05:38:35;94205.63;;;13.57;100.00
20077;BME280;12348;42.710;23.378;2023-04-26T05:41:02;94195.75;;;13.73;100.00
20077;BME280;12348;42.710;23.378;2023-04-26T05:43:29;94201.69;;;13.33;100.00
20077;BME280;12348;42.710;23.378;2023-04-26T05:45:56;94200.41;;;14.06;100.00
20077;BME280;12348;42.710;23.378;2023-04-26T05:48:23;94195.75;;;14.52;100.00
20077;BME280;12348;42.710;23.378;2023-04-26T05:50:51;94203.09;;;15.25;100.00
20077;BME280;12348;42.710;23.378;2023-04-26T05:53:18;94210.81;;;14.62;100.00
20077;BME280;12348;42.710;23.378;2023-04-26T05:55:46;94207.19;;;14.58;100.00
20077;BME280;12348;42.710;23.378;2023-04-26T05:58:14;94206.63;;;14.19;100.00
20077;BME280;12348;42.710;23.378;2023-04-26T06:00:40;94214.53;;;14.12;100.00
20077;BME280;12348;42.710;23.378;2023-04-26T06:03:07;94210.84;;;14.41;100.00
20077;BME280;12348;42.710;23.378;2023-04-26T06:05:35;94207.47;;;14.44;100.00
20077;BME280;12348;42.710;23.378;2023-04-26T06:08:05;94213.88;;;14.72;100.00
20077;BME280;12348;42.710;23.378;2023-04-26T06:10:34;94211.94;;;14.73;100.00
20077;BME280;12348;42.710;23.378;2023-04-26T06:13:06;94210.59;;;14.34;100.00
20077;BME280;12348;42.710;23.378;2023-04-26T06:15:33;94206.16;;;14.62;100.00
20077;BME280;12348;42.710;23.378;2023-04-26T06:18:03;94211.25;;;14.64;100.00
20077;BME280;12348;42.710;23.378;2023-04-26T06:20:30;94205.03;;;15.00;100.00
20077;BME280;12348;42.710;23.378;2023-04-26T06:22:57;94205.47;;;15.14;100.00
20077;BME280;12348;42.710;23.378;2023-04-26T06:25:24;94201.31;;;17.20;92.47
20077;BME280;12348;42.710;23.378;2023-04-26T06:27:51;94203.84;;;19.68;77.44
20077;BME280;12348;42.710;23.378;2023-04-26T06:30:19;94198.91;;;20.44;70.92
20077;BME280;12348;42.710;23.378;2023-04-26T06:32:46;94200.19;;;20.50;69.65
20077;BME280;12348;42.710;23.378;2023-04-26T06:35:13;94198.44;;;20.01;71.70
20077;BME280;12348;42.710;23.378;2023-04-26T06:37:40;94190.66;;;21.95;65.27
20077;BME280;12348;42.710;23.378;2023-04-26T06:40:07;94193.19;;;23.93;60.40
20077;BME280;12348;42.710;23.378;2023-04-26T06:42:35;94185.19;;;26.56;49.92
20077;BME280;12348;42.710;23.378;2023-04-26T06:45:02;94185.69;;;27.52;45.14
20077;BME280;12348;42.710;23.378;2023-04-26T06:47:30;94176.66;;;27.01;45.49
20077;BME280;12348;42.710;23.378;2023-04-26T06:49:57;94179.72;;;27.06;44.27
20077;BME280;12348;42.710;23.378;2023-04-26T06:52:24;94186.44;;;24.89;45.22
20077;BME280;12348;42.710;23.378;2023-04-26T06:54:51;94182.31;;;23.40;46.25
20077;BME280;12348;42.710;23.378;2023-04-26T06:57:17;94188.91;;;21.03;52.02
20077;BME280;12348;42.710;23.378;2023-04-26T06:59:44;94201.59;;;20.78;55.19
20077;BME280;12348;42.710;23.378;2023-04-26T07:02:11;94190.94;;;21.72;53.53
20077;BME280;12348;42.710;23.378;2023-04-26T07:04:39;94188.47;;;22.26;52.12
20077;BME280;12348;42.710;23.378;2023-04-26T07:07:06;94195.22;;;22.68;49.27
20077;BME280;12348;42.710;23.378;2023-04-26T07:09:33;94191.38;;;23.08;49.17
20077;BME280;12348;42.710;23.378;2023-04-26T07:12:00;94193.66;;;23.74;48.53
20077;BME280;12348;42.710;23.378;2023-04-26T07:14:27;94197.06;;;24.14;47.19
20077;BME280;12348;42.710;23.378;2023-04-26T07:16:53;94197.88;;;22.29;50.46
20077;BME280;12348;42.710;23.378;2023-04-26T07:19:20;94204.56;;;20.58;54.36
20077;BME280;12348;42.710;23.378;2023-04-26T07:21:49;94207.31;;;19.11;60.26
20077;BME280;12348;42.710;23.378;2023-04-26T07:24:15;94198.13;;;18.08;65.18
20077;BME280;12348;42.710;23.378;2023-04-26T07:26:42;94209.06;;;16.87;68.08
20077;BME280;12348;42.710;23.378;2023-04-26T07:29:09;94207.16;;;16.28;72.57
20077;BME280;12348;42.710;23.378;2023-04-26T07:31:36;94209.56;;;16.01;74.86
20077;BME280;12348;42.710;23.378;2023-04-26T07:34:03;94208.97;;;16.67;72.93
20077;BME280;12348;42.710;23.378;2023-04-26T07:36:29;94210.81;;;17.11;70.88
20077;BME280;12348;42.710;23.378;2023-04-26T07:38:58;94215.66;;;16.86;72.09
20077;BME280;12348;42.710;23.378;2023-04-26T07:41:25;94225.28;;;16.67;73.22
20077;BME280;12348;42.710;23.378;2023-04-26T07:43:52;94214.03;;;17.87;69.51
20077;BME280;12348;42.710;23.378;2023-04-26T07:46:18;94214.00;;;19.14;64.76
20077;BME280;12348;42.710;23.378;2023-04-26T07:48:46;94213.38;;;18.13;65.18
20077;BME280;12348;42.710;23.378;2023-04-26T07:51:13;94226.47;;;17.33;67.86
20077;BME280;12348;42.710;23.378;2023-04-26T07:53:39;94215.72;;;18.14;63.86
20077;BME280;12348;42.710;23.378;2023-04-26T07:56:08;94219.13;;;18.50;58.93
20077;BME280;12348;42.710;23.378;2023-04-26T07:58:35;94214.09;;;18.72;58.34
20077;BME280;12348;42.710;23.378;2023-04-26T08:01:03;94208.63;;;19.48;55.74
20077;BME280;12348;42.710;23.378;2023-04-26T08:03:30;94213.75;;;20.80;51.83
20077;BME280;12348;42.710;23.378;2023-04-26T08:05:57;94204.78;;;19.52;54.02
20077;BME280;12348;42.710;23.378;2023-04-26T08:08:24;94223.06;;;18.10;58.16
20077;BME280;12348;42.710;23.378;2023-04-26T08:10:52;94230.78;;;16.39;64.96
20077;BME280;12348;42.710;23.378;2023-04-26T08:13:21;94215.06;;;18.40;61.94
20077;BME280;12348;42.710;23.378;2023-04-26T08:15:48;94217.81;;;19.09;56.42
20077;BME280;12348;42.710;23.378;2023-04-26T08:18:15;94209.66;;;19.93;54.13
20077;BME280;12348;42.710;23.378;2023-04-26T08:20:41;94204.78;;;20.46;52.03
20077;BME280;12348;42.710;23.378;2023-04-26T08:23:08;94210.41;;;21.49;49.71
20077;BME280;12348;42.710;23.378;2023-04-26T08:25:35;94218.63;;;22.22;47.36
20077;BME280;12348;42.710;23.378;2023-04-26T08:28:02;94205.09;;;22.97;45.59
20077;BME280;12348;42.710;23.378;2023-04-26T08:30:30;94213.53;;;22.28;46.42
20077;BME280;12348;42.710;23.378;2023-04-26T08:32:57;94221.91;;;21.80;47.77
20077;BME280;12348;42.710;23.378;2023-04-26T08:35:24;94210.94;;;22.89;44.66
20077;BME280;12348;42.710;23.378;2023-04-26T08:37:51;94204.16;;;22.40;46.21
20077;BME280;12348;42.710;23.378;2023-04-26T08:40:21;94207.81;;;23.40;43.84
20077;BME280;12348;42.710;23.378;2023-04-26T08:42:49;94195.94;;;24.01;42.96
20077;BME280;12348;42.710;23.378;2023-04-26T08:45:18;94205.25;;;21.41;47.33
20077;BME280;12348;42.710;23.378;2023-04-26T08:47:48;94214.69;;;20.54;49.60
20077;BME280;12348;42.710;23.378;2023-04-26T08:50:18;94200.44;;;20.79;50.00
20077;BME280;12348;42.710;23.378;2023-04-26T08:52:47;94214.75;;;20.62;50.15
20077;BME280;12348;42.710;23.378;2023-04-26T08:55:15;94211.72;;;21.70;47.52
20077;BME280;12348;42.710;23.378;2023-04-26T08:57:42;94205.34;;;21.55;48.57
20077;BME280;12348;42.710;23.378;2023-04-26T09:00:10;94209.34;;;20.31;51.02
20077;BME280;12348;42.710;23.378;2023-04-26T09:02:39;94207.94;;;20.86;50.19
20077;BME280;12348;42.710;23.378;2023-04-26T09:05:09;94212.28;;;20.94;49.77
20077;BME280;12348;42.710;23.378;2023-04-26T09:07:39;94211.44;;;20.86;49.54
20077;BME280;12348;42.710;23.378;2023-04-26T09:10:08;94214.53;;;19.76;51.94
20077;BME280;12348;42.710;23.378;2023-04-26T09:12:35;94216.25;;;19.88;52.33
20077;BME280;12348;42.710;23.378;2023-04-26T09:15:03;94214.31;;;19.35;54.72
20077;BME280;12348;42.710;23.378;2023-04-26T09:17:34;94222.75;;;18.35;57.05
20077;BME280;12348;42.710;23.378;2023-04-26T09:20:19;94214.41;;;17.85;58.80
20077;BME280;12348;42.710;23.378;2023-04-26T09:22:47;94213.66;;;17.34;61.13
20077;BME280;12348;42.710;23.378;2023-04-26T09:25:15;94217.94;;;17.70;60.59
20077;BME280;12348;42.710;23.378;2023-04-26T09:27:43;94216.75;;;18.06;60.36
20077;BME280;12348;42.710;23.378;2023-04-26T09:30:12;94218.88;;;19.28;54.58
20077;BME280;12348;42.710;23.378;2023-04-26T09:32:48;94218.06;;;19.24;54.57
20077;BME280;12348;42.710;23.378;2023-04-26T09:35:37;94230.91;;;19.00;54.81
20077;BME280;12348;42.710;23.378;2023-04-26T09:38:06;94223.66;;;18.85;54.54
20077;BME280;12348;42.710;23.378;2023-04-26T09:40:35;94219.84;;;18.47;55.58
20077;BME280;12348;42.710;23.378;2023-04-26T09:43:04;94223.16;;;18.56;56.97
20077;BME280;12348;42.710;23.378;2023-04-26T09:45:32;94215.22;;;18.71;55.12
20077;BME280;12348;42.710;23.378;2023-04-26T09:48:13;94224.66;;;18.54;55.93
20077;BME280;12348;42.710;23.378;2023-04-26T09:50:42;94205.06;;;18.48;55.98
20077;BME280;12348;42.710;23.378;2023-04-26T09:53:10;94219.34;;;17.80;56.41
20077;BME280;12348;42.710;23.378;2023-04-26T09:55:37;94215.44;;;17.26;58.13
20077;BME280;12348;42.710;23.378;2023-04-26T09:58:08;94218.34;;;16.70;61.24
20077;BME280;12348;42.710;23.378;2023-04-26T10:00:37;94213.53;;;16.95;60.50
20077;BME280;12348;42.710;23.378;2023-04-26T10:03:06;94217.75;;;16.17;61.91
20077;BME280;12348;42.710;23.378;2023-04-26T10:05:35;94212.72;;;16.63;61.68
20077;BME280;12348;42.710;23.378;2023-04-26T10:08:05;94214.06;;;17.01;61.75
20077;BME280;12348;42.710;23.378;2023-04-26T10:10:33;94220.56;;;16.96;60.25
20077;BME280;12348;42.710;23.378;2023-04-26T10:13:01;94203.34;;;17.43;57.63
20077;BME280;12348;42.710;23.378;2023-04-26T10:15:29;94220.56;;;16.96;59.03
20077;BME280;12348;42.710;23.378;2023-04-26T10:17:56;94221.97;;;16.90;59.53
20077;BME280;12348;42.710;23.378;2023-04-26T10:20:26;94213.00;;;17.05;59.81
20077;BME280;12348;42.710;23.378;2023-04-26T10:22:56;94217.28;;;15.99;64.13
20077;BME280;12348;42.710;23.378;2023-04-26T10:25:37;94215.09;;;15.77;63.52
20077;BME280;12348;42.710;23.378;2023-04-26T10:28:04;94210.75;;;15.88;62.67
20077;BME280;12348;42.710;23.378;2023-04-26T10:30:32;94207.16;;;15.84;60.87
20077;BME280;12348;42.710;23.378;2023-04-26T10:33:14;94209.56;;;15.73;60.98
20077;BME280;12348;42.710;23.378;2023-04-26T10:36:10;94202.28;;;15.37;60.85
20077;BME280;12348;42.710;23.378;2023-04-26T10:38:39;94201.88;;;15.10;60.42
20077;BME280;12348;42.710;23.378;2023-04-26T10:41:35;94202.97;;;15.34;58.84
20077;BME280;12348;42.710;23.378;2023-04-26T10:47:07;94201.63;;;15.27;59.83
20077;BME280;12348;42.710;23.378;2023-04-26T10:49:46;94196.97;;;15.40;60.86
20077;BME280;12348;42.710;23.378;2023-04-26T10:52:13;94200.63;;;15.60;59.68
20077;BME280;12348;42.710;23.378;2023-04-26T10:54:56;94196.09;;;16.20;57.47
20077;BME280;12348;42.710;23.378;2023-04-26T10:57:47;94191.97;;;16.11;55.21
20077;BME280;12348;42.710;23.378;2023-04-26T11:00:19;94183.63;;;15.88;56.21
20077;BME280;12348;42.710;23.378;2023-04-26T11:02:52;94188.53;;;15.98;55.91
20077;BME280;12348;42.710;23.378;2023-04-26T11:05:35;94181.22;;;16.14;56.15
20077;BME280;12348;42.710;23.378;2023-04-26T11:08:07;94196.56;;;16.22;54.72
20077;BME280;12348;42.710;23.378;2023-04-26T11:10:36;94184.59;;;16.55;54.10
20077;BME280;12348;42.710;23.378;2023-04-26T11:13:04;94196.50;;;17.49;52.53
20077;BME280;12348;42.710;23.378;2023-04-26T11:15:31;94202.28;;;17.83;51.00
20077;BME280;12348;42.710;23.378;2023-04-26T11:18:01;94194.41;;;17.78;51.32
20077;BME280;12348;42.710;23.378;2023-04-26T11:20:29;94191.03;;;18.04;50.22
20077;BME280;12348;42.710;23.378;2023-04-26T11:22:57;94191.38;;;17.48;51.43
20077;BME280;12348;42.710;23.378;2023-04-26T11:25:24;94182.56;;;17.35;50.59
20077;BME280;12348;42.710;23.378;2023-04-26T11:27:56;94192.31;;;17.01;51.19
20077;BME280;12348;42.710;23.378;2023-04-26T11:30:24;94196.25;;;17.38;50.76
20077;BME280;12348;42.710;23.378;2023-04-26T11:32:53;94192.00;;;17.57;50.24
20077;BME280;12348;42.710;23.378;2023-04-26T11:35:20;94191.38;;;17.83;49.90
20077;BME280;12348;42.710;23.378;2023-04-26T11:37:47;94194.94;;;17.48;51.96
20077;BME280;12348;42.710;23.378;2023-04-26T11:40:16;94193.28;;;16.77;53.22
20077;BME280;12348;42.710;23.378;2023-04-26T11:42:43;94186.47;;;17.53;53.69
20077;BME280;12348;42.710;23.378;2023-04-26T11:45:10;94186.53;;;17.37;52.58
20077;BME280;12348;42.710;23.378;2023-04-26T11:47:39;94188.84;;;17.19;53.23
20077;BME280;12348;42.710;23.378;2023-04-26T11:50:07;94192.59;;;16.95;53.75
20077;BME280;12348;42.710;23.378;2023-04-26T11:52:34;94183.63;;;16.95;51.79
20077;BME280;12348;42.710;23.378;2023-04-26T11:55:03;94185.09;;;16.61;52.48
20077;BME280;12348;42.710;23.378;2023-04-26T11:57:31;94196.88;;;16.96;53.27
20077;BME280;12348;42.710;23.378;2023-04-26T12:00:09;94174.84;;;17.37;51.91
20077;BME280;12348;42.710;23.378;2023-04-26T12:02:43;94182.03;;;17.45;51.88
20077;BME280;12348;42.710;23.378;2023-04-26T12:05:19;94182.97;;;17.17;52.99
20077;BME280;12348;42.710;23.378;2023-04-26T12:07:49;94185.78;;;17.05;52.42
20077;BME280;12348;42.710;23.378;2023-04-26T12:10:17;94182.56;;;16.68;53.97
20077;BME280;12348;42.710;23.378;2023-04-26T12:12:46;94172.28;;;16.61;54.63
20077;BME280;12348;42.710;23.378;2023-04-26T12:15:14;94192.22;;;16.06;56.26
20077;BME280;12348;42.710;23.378;2023-04-26T12:17:52;94191.13;;;16.38;57.15
20077;BME280;12348;42.710;23.378;2023-04-26T12:20:28;94195.44;;;16.39;56.46
20077;BME280;12348;42.710;23.378;2023-04-26T12:23:06;94185.53;;;16.31;55.18
20077;BME280;12348;42.710;23.378;2023-04-26T12:25:35;94185.19;;;16.48;54.78
20077;BME280;12348;42.710;23.378;2023-04-26T12:28:03;94177.50;;;16.51;54.58
20077;BME280;12348;42.710;23.378;2023-04-26T12:30:30;94185.19;;;16.80;53.82
20077;BME280;12348;42.710;23.378;2023-04-26T12:32:58;94178.72;;;16.85;55.36
20077;BME280;12348;42.710;23.378;2023-04-26T12:35:25;94179.84;;;16.84;54.53
20077;BME280;12348;42.710;23.378;2023-04-26T12:37:52;94177.47;;;16.66;54.30
20077;BME280;12348;42.710;23.378;2023-04-26T12:40:21;94177.22;;;16.40;54.04
20077;BME280;12348;42.710;23.378;2023-04-26T12:42:49;94179.44;;;16.06;54.40
20077;BME280;12348;42.710;23.378;2023-04-26T12:45:17;94180.44;;;15.86;55.61
20077;BME280;12348;42.710;23.378;2023-04-26T12:47:45;94170.19;;;15.26;56.66
20077;BME280;12348;42.710;23.378;2023-04-26T12:50:14;94173.47;;;15.32;57.58
20077;BME280;12348;42.710;23.378;2023-04-26T12:52:42;94174.34;;;14.84;58.29
20077;BME280;12348;42.710;23.378;2023-04-26T12:55:10;94187.19;;;14.74;60.04
20077;BME280;12348;42.710;23.378;2023-04-26T12:57:38;94174.22;;;14.68;60.89